Terminal Aerodrome Forecast
Issued by NWS Charleston, WV

Current Version | Previous Version | Graphics & Text | Print | Product List | Glossary On
Versions: 1 2 3 4 5 6 7 8 9 10 11 12 13 14 15 16 17 18 19 20 21 22 23 24 25
000
FTUS41 KRLX 242300
TAFPKB
TAF
KPKB 242330Z 2500/2524 23006KT P6SM BKN010
      TEMPO 2501/2504 4SM -SHSN BKN008
     FM250600 26005KT P6SM BKN007
     FM251000 23004KT P6SM BKN015
     FM252000 13004KT 6SM HZ OVC022=

USA.gov is the U.S. government's official web portal to all federal, state and local government web resources and services.